sensor_id;sensor_type;location;lat;lon;timestamp;P1;durP1;ratioP1;P2;durP2;ratioP2
74483;SDS011;62942;52.462;10.846;2023-10-31T00:01:01;17.7;;;27.1;;
74483;SDS011;62942;52.462;10.846;2023-10-31T00:02:11;17.4;;;25.5;;
74483;SDS011;62942;52.462;10.846;2023-10-31T00:03:21;18.6;;;29.2;;
74483;SDS011;62942;52.462;10.846;2023-10-31T00:04:31;18.4;;;27.3;;
74483;SDS011;62942;52.462;10.846;2023-10-31T00:05:41;19.1;;;29.6;;
74483;SDS011;62942;52.462;10.846;2023-10-31T00:06:51;19.6;;;29.6;;
74483;SDS011;62942;52.462;10.846;2023-10-31T00:08:01;18.7;;;30.2;;
74483;SDS011;62942;52.462;10.846;2023-10-31T00:09:11;17.5;;;25.6;;
74483;SDS011;62942;52.462;10.846;2023-10-31T00:10:11;16.4;;;25.9;;
74483;SDS011;62942;52.462;10.846;2023-10-31T00:11:21;15.5;;;23.3;;
74483;SDS011;62942;52.462;10.846;2023-10-31T00:12:31;15;;;21.8;;
74483;SDS011;62942;52.462;10.846;2023-10-31T00:13:41;15.2;;;21.5;;
74483;SDS011;62942;52.462;10.846;2023-10-31T00:14:51;14.8;;;21.8;;
74483;SDS011;62942;52.462;10.846;2023-10-31T00:16:01;14.5;;;20.2;;
74483;SDS011;62942;52.462;10.846;2023-10-31T00:17:11;14.3;;;21.6;;
74483;SDS011;62942;52.462;10.846;2023-10-31T00:18:21;14.3;;;20.7;;
74483;SDS011;62942;52.462;10.846;2023-10-31T00:19:21;13.9;;;19;;
74483;SDS011;62942;52.462;10.846;2023-10-31T00:20:31;14.2;;;21.9;;
74483;SDS011;62942;52.462;10.846;2023-10-31T00:21:41;14.1;;;19.7;;
74483;SDS011;62942;52.462;10.846;2023-10-31T00:22:51;13.8;;;19.6;;
74483;SDS011;62942;52.462;10.846;2023-10-31T00:24:01;14.1;;;20.5;;
74483;SDS011;62942;52.462;10.846;2023-10-31T00:25:11;14.1;;;21.8;;
74483;SDS011;62942;52.462;10.846;2023-10-31T00:26:11;14.3;;;20.4;;
74483;SDS011;62942;52.462;10.846;2023-10-31T00:27:21;13.5;;;18.8;;
74483;SDS011;62942;52.462;10.846;2023-10-31T00:28:31;13.8;;;19.2;;
74483;SDS011;62942;52.462;10.846;2023-10-31T00:29:41;14.3;;;21.3;;
74483;SDS011;62942;52.462;10.846;2023-10-31T00:30:51;14.2;;;21.7;;
74483;SDS011;62942;52.462;10.846;2023-10-31T00:32:01;14.4;;;21.3;;
74483;SDS011;62942;52.462;10.846;2023-10-31T00:33:01;14.5;;;21.7;;
74483;SDS011;62942;52.462;10.846;2023-10-31T00:34:11;14.2;;;21.2;;
74483;SDS011;62942;52.462;10.846;2023-10-31T00:35:21;14.8;;;22.7;;
74483;SDS011;62942;52.462;10.846;2023-10-31T00:36:21;14.1;;;21.6;;
74483;SDS011;62942;52.462;10.846;2023-10-31T00:37:31;14.6;;;21.6;;
74483;SDS011;62942;52.462;10.846;2023-10-31T00:38:41;14.2;;;20.6;;
74483;SDS011;62942;52.462;10.846;2023-10-31T00:39:51;14.1;;;21.3;;
74483;SDS011;62942;52.462;10.846;2023-10-31T00:41:02;14.6;;;24.8;;
74483;SDS011;62942;52.462;10.846;2023-10-31T00:42:11;14.3;;;22.2;;
74483;SDS011;62942;52.462;10.846;2023-10-31T00:43:21;14.3;;;22.5;;
74483;SDS011;62942;52.462;10.846;2023-10-31T00:44:21;14;;;21.7;;
74483;SDS011;62942;52.462;10.846;2023-10-31T00:45:31;14;;;21.9;;
74483;SDS011;62942;52.462;10.846;2023-10-31T00:46:41;14;;;21.4;;
74483;SDS011;62942;52.462;10.846;2023-10-31T00:47:51;13.9;;;22.9;;
74483;SDS011;62942;52.462;10.846;2023-10-31T00:49:01;13.1;;;20.8;;
74483;SDS011;62942;52.462;10.846;2023-10-31T00:50:11;13.8;;;21.6;;
74483;SDS011;62942;52.462;10.846;2023-10-31T00:51:11;13.5;;;20.7;;
74483;SDS011;62942;52.462;10.846;2023-10-31T00:52:21;13.2;;;20.8;;
74483;SDS011;62942;52.462;10.846;2023-10-31T00:53:21;13.3;;;21.6;;
74483;SDS011;62942;52.462;10.846;2023-10-31T00:54:31;12.5;;;18.2;;
74483;SDS011;62942;52.462;10.846;2023-10-31T00:55:31;12.9;;;20.1;;
74483;SDS011;62942;52.462;10.846;2023-10-31T00:56:41;12.8;;;18.2;;
74483;SDS011;62942;52.462;10.846;2023-10-31T00:57:52;13.1;;;21.3;;
74483;SDS011;62942;52.462;10.846;2023-10-31T00:58:51;12.4;;;20.5;;
74483;SDS011;62942;52.462;10.846;2023-10-31T01:00:01;12.7;;;20.1;;
74483;SDS011;62942;52.462;10.846;2023-10-31T01:01:01;12.3;;;18.8;;
74483;SDS011;62942;52.462;10.846;2023-10-31T01:02:11;12.2;;;21;;
74483;SDS011;62942;52.462;10.846;2023-10-31T01:03:11;12.4;;;19.4;;
74483;SDS011;62942;52.462;10.846;2023-10-31T01:04:21;12.2;;;19.7;;
74483;SDS011;62942;52.462;10.846;2023-10-31T01:05:31;11.6;;;18.6;;
74483;SDS011;62942;52.462;10.846;2023-10-31T01:06:41;11.9;;;19.9;;
74483;SDS011;62942;52.462;10.846;2023-10-31T01:07:41;11;;;16.4;;
74483;SDS011;62942;52.462;10.846;2023-10-31T01:08:51;11.2;;;18;;
74483;SDS011;62942;52.462;10.846;2023-10-31T01:10:01;10.5;;;15.8;;
74483;SDS011;62942;52.462;10.846;2023-10-31T01:11:11;10.3;;;16.3;;
74483;SDS011;62942;52.462;10.846;2023-10-31T01:12:11;9.8;;;17.4;;
74483;SDS011;62942;52.462;10.846;2023-10-31T01:13:21;10.4;;;16.8;;
74483;SDS011;62942;52.462;10.846;2023-10-31T01:14:21;10;;;16.6;;
74483;SDS011;62942;52.462;10.846;2023-10-31T01:15:31;9.3;;;16.3;;
74483;SDS011;62942;52.462;10.846;2023-10-31T01:16:41;9.6;;;15.9;;
74483;SDS011;62942;52.462;10.846;2023-10-31T01:17:51;9.7;;;17;;
74483;SDS011;62942;52.462;10.846;2023-10-31T01:19:01;9.9;;;17.5;;
74483;SDS011;62942;52.462;10.846;2023-10-31T01:20:11;9.4;;;15;;
74483;SDS011;62942;52.462;10.846;2023-10-31T01:21:21;9.1;;;14.3;;
74483;SDS011;62942;52.462;10.846;2023-10-31T01:22:31;9.6;;;19.4;;
74483;SDS011;62942;52.462;10.846;2023-10-31T01:23:41;9.2;;;14.8;;
74483;SDS011;62942;52.462;10.846;2023-10-31T01:24:41;9.1;;;15.3;;
74483;SDS011;62942;52.462;10.846;2023-10-31T01:25:51;8.9;;;16.2;;
74483;SDS011;62942;52.462;10.846;2023-10-31T01:27:01;9.1;;;16.3;;
74483;SDS011;62942;52.462;10.846;2023-10-31T01:28:11;9;;;13.7;;
74483;SDS011;62942;52.462;10.846;2023-10-31T01:29:21;9;;;14.4;;
74483;SDS011;62942;52.462;10.846;2023-10-31T01:30:21;8.7;;;13.3;;
74483;SDS011;62942;52.462;10.846;2023-10-31T01:31:31;8.5;;;13.2;;
74483;SDS011;62942;52.462;10.846;2023-10-31T01:32:31;8.6;;;14.2;;
74483;SDS011;62942;52.462;10.846;2023-10-31T01:33:41;8.7;;;15.2;;
74483;SDS011;62942;52.462;10.846;2023-10-31T01:34:43;9;;;15.5;;
74483;SDS011;62942;52.462;10.846;2023-10-31T01:35:51;8.5;;;16.2;;
74483;SDS011;62942;52.462;10.846;2023-10-31T01:37:01;8.3;;;13.7;;
74483;SDS011;62942;52.462;10.846;2023-10-31T01:38:11;8;;;12.7;;
74483;SDS011;62942;52.462;10.846;2023-10-31T01:39:11;7.8;;;13.3;;
74483;SDS011;62942;52.462;10.846;2023-10-31T01:40:21;8.1;;;14.6;;
74483;SDS011;62942;52.462;10.846;2023-10-31T01:41:31;7.6;;;12.9;;
74483;SDS011;62942;52.462;10.846;2023-10-31T01:42:41;8.1;;;12.6;;
74483;SDS011;62942;52.462;10.846;2023-10-31T01:43:41;8;;;14.5;;
74483;SDS011;62942;52.462;10.846;2023-10-31T01:44:51;7.2;;;12.7;;
74483;SDS011;62942;52.462;10.846;2023-10-31T01:45:51;7.5;;;14.8;;
74483;SDS011;62942;52.462;10.846;2023-10-31T01:47:01;7.4;;;13.2;;
74483;SDS011;62942;52.462;10.846;2023-10-31T01:48:11;7.4;;;14.3;;
74483;SDS011;62942;52.462;10.846;2023-10-31T01:49:21;7.6;;;12.5;;
74483;SDS011;62942;52.462;10.846;2023-10-31T01:50:21;7.1;;;12;;
74483;SDS011;62942;52.462;10.846;2023-10-31T01:51:31;7.1;;;12.5;;
74483;SDS011;62942;52.462;10.846;2023-10-31T01:52:31;7.4;;;14.4;;
74483;SDS011;62942;52.462;10.846;2023-10-31T01:53:41;7.4;;;15.9;;
74483;SDS011;62942;52.462;10.846;2023-10-31T01:54:41;7.3;;;13.1;;
74483;SDS011;62942;52.462;10.846;2023-10-31T01:55:51;7.4;;;12.6;;
74483;SDS011;62942;52.462;10.846;2023-10-31T01:57:01;7.5;;;12.5;;
74483;SDS011;62942;52.462;10.846;2023-10-31T01:58:01;6.9;;;11.5;;
74483;SDS011;62942;52.462;10.846;2023-10-31T01:59:11;7;;;11.3;;
74483;SDS011;62942;52.462;10.846;2023-10-31T02:00:12;7.3;;;11.7;;
74483;SDS011;62942;52.462;10.846;2023-10-31T02:01:21;7;;;12.8;;
74483;SDS011;62942;52.462;10.846;2023-10-31T02:02:31;7.1;;;11.9;;
74483;SDS011;62942;52.462;10.846;2023-10-31T02:03:41;6.9;;;12.2;;
74483;SDS011;62942;52.462;10.846;2023-10-31T02:04:41;7;;;11.5;;
74483;SDS011;62942;52.462;10.846;2023-10-31T02:05:51;7.2;;;12.2;;
74483;SDS011;62942;52.462;10.846;2023-10-31T02:06:51;7;;;12.9;;
74483;SDS011;62942;52.462;10.846;2023-10-31T02:08:01;6.7;;;12.5;;
74483;SDS011;62942;52.462;10.846;2023-10-31T02:09:11;6.8;;;10.9;;
74483;SDS011;62942;52.462;10.846;2023-10-31T02:10:21;6.7;;;11.8;;
74483;SDS011;62942;52.462;10.846;2023-10-31T02:11:21;7;;;11.8;;
74483;SDS011;62942;52.462;10.846;2023-10-31T02:12:32;6.7;;;10.6;;
74483;SDS011;62942;52.462;10.846;2023-10-31T02:13:41;6.9;;;12.1;;
74483;SDS011;62942;52.462;10.846;2023-10-31T02:14:41;6.8;;;11.5;;
74483;SDS011;62942;52.462;10.846;2023-10-31T02:15:51;6.6;;;11.2;;
74483;SDS011;62942;52.462;10.846;2023-10-31T02:17:01;7.1;;;11.5;;
74483;SDS011;62942;52.462;10.846;2023-10-31T02:18:01;6.7;;;11.1;;
74483;SDS011;62942;52.462;10.846;2023-10-31T02:19:01;6.2;;;10.8;;
74483;SDS011;62942;52.462;10.846;2023-10-31T02:20:11;6.5;;;12.4;;
74483;SDS011;62942;52.462;10.846;2023-10-31T02:21:21;6.4;;;12.2;;
74483;SDS011;62942;52.462;10.846;2023-10-31T02:22:21;6.4;;;10.8;;
74483;SDS011;62942;52.462;10.846;2023-10-31T02:23:31;6.5;;;11.5;;
74483;SDS011;62942;52.462;10.846;2023-10-31T02:24:41;6.3;;;11;;
74483;SDS011;62942;52.462;10.846;2023-10-31T02:25:41;6.2;;;12.6;;
74483;SDS011;62942;52.462;10.846;2023-10-31T02:26:51;6.4;;;11.9;;
74483;SDS011;62942;52.462;10.846;2023-10-31T02:27:51;6.2;;;10.9;;
74483;SDS011;62942;52.462;10.846;2023-10-31T02:29:01;6.3;;;12;;
74483;SDS011;62942;52.462;10.846;2023-10-31T02:30:11;6;;;10.9;;
74483;SDS011;62942;52.462;10.846;2023-10-31T02:31:11;5.8;;;8.9;;
74483;SDS011;62942;52.462;10.846;2023-10-31T02:32:21;5.7;;;10.8;;
74483;SDS011;62942;52.462;10.846;2023-10-31T02:33:21;5.8;;;8.3;;
74483;SDS011;62942;52.462;10.846;2023-10-31T02:34:31;5.8;;;9.4;;
74483;SDS011;62942;52.462;10.846;2023-10-31T02:35:31;5.8;;;9.1;;
74483;SDS011;62942;52.462;10.846;2023-10-31T02:36:41;5.7;;;8.9;;
74483;SDS011;62942;52.462;10.846;2023-10-31T02:37:41;5.7;;;10.2;;
74483;SDS011;62942;52.462;10.846;2023-10-31T02:38:51;5.9;;;11.7;;
74483;SDS011;62942;52.462;10.846;2023-10-31T02:39:51;5.8;;;10.6;;
74483;SDS011;62942;52.462;10.846;2023-10-31T02:41:01;5.6;;;9.6;;
74483;SDS011;62942;52.462;10.846;2023-10-31T02:42:01;5.8;;;9.1;;
74483;SDS011;62942;52.462;10.846;2023-10-31T02:43:11;5.6;;;10.4;;
74483;SDS011;62942;52.462;10.846;2023-10-31T02:44:11;5.4;;;8.8;;
74483;SDS011;62942;52.462;10.846;2023-10-31T02:45:21;5.6;;;8.8;;
74483;SDS011;62942;52.462;10.846;2023-10-31T02:46:21;5.4;;;8.1;;
74483;SDS011;62942;52.462;10.846;2023-10-31T02:47:31;5.4;;;9.2;;
74483;SDS011;62942;52.462;10.846;2023-10-31T02:48:41;5.4;;;9.3;;
74483;SDS011;62942;52.462;10.846;2023-10-31T02:49:41;5.6;;;9.4;;
74483;SDS011;62942;52.462;10.846;2023-10-31T02:50:51;5.3;;;9.6;;
74483;SDS011;62942;52.462;10.846;2023-10-31T02:51:51;5.4;;;8.6;;
74483;SDS011;62942;52.462;10.846;2023-10-31T02:53:02;5.4;;;8.7;;
74483;SDS011;62942;52.462;10.846;2023-10-31T02:54:01;5.5;;;8;;
74483;SDS011;62942;52.462;10.846;2023-10-31T02:55:11;5.5;;;11.1;;
74483;SDS011;62942;52.462;10.846;2023-10-31T02:56:21;5.2;;;8.5;;
74483;SDS011;62942;52.462;10.846;2023-10-31T02:57:21;5.5;;;9.6;;
74483;SDS011;62942;52.462;10.846;2023-10-31T02:58:21;5.4;;;7.7;;
74483;SDS011;62942;52.462;10.846;2023-10-31T02:59:31;5.4;;;9;;
74483;SDS011;62942;52.462;10.846;2023-10-31T03:00:31;5.8;;;9.6;;
74483;SDS011;62942;52.462;10.846;2023-10-31T03:01:41;5.7;;;11.1;;
74483;SDS011;62942;52.462;10.846;2023-10-31T03:02:51;5.5;;;7.8;;
74483;SDS011;62942;52.462;10.846;2023-10-31T03:03:51;5.9;;;9.2;;
74483;SDS011;62942;52.462;10.846;2023-10-31T03:05:01;5.3;;;8.6;;
74483;SDS011;62942;52.462;10.846;2023-10-31T03:06:01;5.7;;;9.4;;
74483;SDS011;62942;52.462;10.846;2023-10-31T03:07:11;5.8;;;10.3;;
74483;SDS011;62942;52.462;10.846;2023-10-31T03:08:11;5.8;;;10.2;;
74483;SDS011;62942;52.462;10.846;2023-10-31T03:09:21;5.8;;;9.1;;
74483;SDS011;62942;52.462;10.846;2023-10-31T03:10:21;5.7;;;8.3;;
74483;SDS011;62942;52.462;10.846;2023-10-31T03:11:31;6.1;;;11.5;;
74483;SDS011;62942;52.462;10.846;2023-10-31T03:12:41;6.1;;;9.3;;
74483;SDS011;62942;52.462;10.846;2023-10-31T03:13:41;6;;;10.1;;
74483;SDS011;62942;52.462;10.846;2023-10-31T03:14:51;6;;;9.2;;
74483;SDS011;62942;52.462;10.846;2023-10-31T03:15:51;6.1;;;9.9;;
74483;SDS011;62942;52.462;10.846;2023-10-31T03:17:01;6.4;;;10.8;;
74483;SDS011;62942;52.462;10.846;2023-10-31T03:18:01;6.4;;;11.1;;
74483;SDS011;62942;52.462;10.846;2023-10-31T03:19:11;6.5;;;11;;
74483;SDS011;62942;52.462;10.846;2023-10-31T03:20:11;6.5;;;10.3;;
74483;SDS011;62942;52.462;10.846;2023-10-31T03:21:21;6.6;;;10.4;;
74483;SDS011;62942;52.462;10.846;2023-10-31T03:22:21;6.4;;;10.7;;
74483;SDS011;62942;52.462;10.846;2023-10-31T03:23:31;6.7;;;10.8;;
74483;SDS011;62942;52.462;10.846;2023-10-31T03:24:31;6.8;;;11.1;;
74483;SDS011;62942;52.462;10.846;2023-10-31T03:25:31;6.8;;;11.8;;
74483;SDS011;62942;52.462;10.846;2023-10-31T03:26:41;7;;;11;;
74483;SDS011;62942;52.462;10.846;2023-10-31T03:27:41;6.6;;;11.9;;
74483;SDS011;62942;52.462;10.846;2023-10-31T03:28:51;6.6;;;10.8;;
74483;SDS011;62942;52.462;10.846;2023-10-31T03:30:01;6.5;;;11.5;;
74483;SDS011;62942;52.462;10.846;2023-10-31T03:31:01;6.8;;;12.2;;
74483;SDS011;62942;52.462;10.846;2023-10-31T03:32:11;6.7;;;10.7;;
74483;SDS011;62942;52.462;10.846;2023-10-31T03:33:22;6.7;;;10.3;;
74483;SDS011;62942;52.462;10.846;2023-10-31T03:34:21;7;;;13.8;;
74483;SDS011;62942;52.462;10.846;2023-10-31T03:35:31;6.3;;;10;;
74483;SDS011;62942;52.462;10.846;2023-10-31T03:36:31;6.7;;;10.4;;
74483;SDS011;62942;52.462;10.846;2023-10-31T03:37:41;6.6;;;10.9;;
74483;SDS011;62942;52.462;10.846;2023-10-31T03:38:51;6.7;;;11.7;;
74483;SDS011;62942;52.462;10.846;2023-10-31T03:39:51;6.3;;;10;;
74483;SDS011;62942;52.462;10.846;2023-10-31T03:41:01;5.7;;;8.2;;
74483;SDS011;62942;52.462;10.846;2023-10-31T03:42:01;5.5;;;8.7;;
74483;SDS011;62942;52.462;10.846;2023-10-31T03:43:11;5.5;;;8.3;;
74483;SDS011;62942;52.462;10.846;2023-10-31T03:44:21;5;;;8.2;;
74483;SDS011;62942;52.462;10.846;2023-10-31T03:45:31;4.6;;;7.3;;
74483;SDS011;62942;52.462;10.846;2023-10-31T03:46:31;4.6;;;6.7;;
74483;SDS011;62942;52.462;10.846;2023-10-31T03:47:41;4.7;;;7.6;;
74483;SDS011;62942;52.462;10.846;2023-10-31T03:48:51;4.5;;;6.2;;
74483;SDS011;62942;52.462;10.846;2023-10-31T03:49:51;4.5;;;7.7;;
74483;SDS011;62942;52.462;10.846;2023-10-31T03:51:01;4.3;;;6.5;;
74483;SDS011;62942;52.462;10.846;2023-10-31T03:52:11;4.4;;;6.8;;
74483;SDS011;62942;52.462;10.846;2023-10-31T03:53:21;4.6;;;7.7;;
74483;SDS011;62942;52.462;10.846;2023-10-31T03:54:31;4.1;;;6.6;;
74483;SDS011;62942;52.462;10.846;2023-10-31T03:55:41;4.2;;;7.6;;
74483;SDS011;62942;52.462;10.846;2023-10-31T03:56:41;4;;;5.6;;
74483;SDS011;62942;52.462;10.846;2023-10-31T03:57:41;4;;;6.7;;
74483;SDS011;62942;52.462;10.846;2023-10-31T03:58:51;4.3;;;6.4;;
74483;SDS011;62942;52.462;10.846;2023-10-31T03:59:51;4.2;;;6.1;;
74483;SDS011;62942;52.462;10.846;2023-10-31T04:01:01;4.3;;;5.8;;
74483;SDS011;62942;52.462;10.846;2023-10-31T04:02:11;4.2;;;7;;
74483;SDS011;62942;52.462;10.846;2023-10-31T04:03:11;4.1;;;6.1;;
74483;SDS011;62942;52.462;10.846;2023-10-31T04:04:11;4.3;;;6;;
74483;SDS011;62942;52.462;10.846;2023-10-31T04:05:21;4.1;;;5.6;;
74483;SDS011;62942;52.462;10.846;2023-10-31T04:06:31;4.2;;;6.1;;
74483;SDS011;62942;52.462;10.846;2023-10-31T04:07:31;4;;;5.4;;
74483;SDS011;62942;52.462;10.846;2023-10-31T04:08:41;4.5;;;7;;
74483;SDS011;62942;52.462;10.846;2023-10-31T04:09:41;4.5;;;6.3;;
74483;SDS011;62942;52.462;10.846;2023-10-31T04:10:51;4.1;;;6;;
74483;SDS011;62942;52.462;10.846;2023-10-31T04:11:51;4.2;;;7.6;;
74483;SDS011;62942;52.462;10.846;2023-10-31T04:13:01;3.9;;;5.5;;
74483;SDS011;62942;52.462;10.846;2023-10-31T04:14:11;4.1;;;6;;
74483;SDS011;62942;52.462;10.846;2023-10-31T04:15:21;3.9;;;6.2;;
74483;SDS011;62942;52.462;10.846;2023-10-31T04:16:21;3.9;;;5.5;;
74483;SDS011;62942;52.462;10.846;2023-10-31T04:17:21;4.1;;;7.7;;
74483;SDS011;62942;52.462;10.846;2023-10-31T04:18:31;4.2;;;6.3;;
74483;SDS011;62942;52.462;10.846;2023-10-31T04:19:41;4;;;7;;
74483;SDS011;62942;52.462;10.846;2023-10-31T04:20:41;3.8;;;5.7;;
74483;SDS011;62942;52.462;10.846;2023-10-31T04:21:52;4;;;5.9;;
74483;SDS011;62942;52.462;10.846;2023-10-31T04:23:01;3.9;;;5.3;;
74483;SDS011;62942;52.462;10.846;2023-10-31T04:24:01;4.1;;;6.7;;
74483;SDS011;62942;52.462;10.846;2023-10-31T04:25:11;3.9;;;5;;
74483;SDS011;62942;52.462;10.846;2023-10-31T04:26:21;4.2;;;6.9;;
74483;SDS011;62942;52.462;10.846;2023-10-31T04:27:21;4;;;5.8;;
74483;SDS011;62942;52.462;10.846;2023-10-31T04:28:31;3.9;;;5.4;;
74483;SDS011;62942;52.462;10.846;2023-10-31T04:29:41;3.6;;;5.3;;
74483;SDS011;62942;52.462;10.846;2023-10-31T04:30:51;3.8;;;5.8;;
74483;SDS011;62942;52.462;10.846;2023-10-31T04:31:51;4.1;;;5.7;;
74483;SDS011;62942;52.462;10.846;2023-10-31T04:32:51;4.1;;;7.5;;
74483;SDS011;62942;52.462;10.846;2023-10-31T04:34:01;3.8;;;5.2;;
74483;SDS011;62942;52.462;10.846;2023-10-31T04:35:11;3.9;;;5.4;;
74483;SDS011;62942;52.462;10.846;2023-10-31T04:36:21;3.8;;;5.6;;
74483;SDS011;62942;52.462;10.846;2023-10-31T04:37:31;4;;;5.8;;
74483;SDS011;62942;52.462;10.846;2023-10-31T04:38:41;3.9;;;7.4;;
74483;SDS011;62942;52.462;10.846;2023-10-31T04:39:51;3.7;;;5.9;;
74483;SDS011;62942;52.462;10.846;2023-10-31T04:41:01;3.6;;;5.3;;
74483;SDS011;62942;52.462;10.846;2023-10-31T04:42:11;3.9;;;6.5;;
74483;SDS011;62942;52.462;10.846;2023-10-31T04:43:21;3.5;;;4.8;;
74483;SDS011;62942;52.462;10.846;2023-10-31T04:44:31;3.5;;;5.3;;
74483;SDS011;62942;52.462;10.846;2023-10-31T04:45:41;3.6;;;5.9;;
74483;SDS011;62942;52.462;10.846;2023-10-31T04:46:41;3.6;;;5.4;;
74483;SDS011;62942;52.462;10.846;2023-10-31T04:47:51;3.9;;;5.4;;
74483;SDS011;62942;52.462;10.846;2023-10-31T04:48:51;4.1;;;6.3;;
74483;SDS011;62942;52.462;10.846;2023-10-31T04:49:51;4.3;;;5.6;;
74483;SDS011;62942;52.462;10.846;2023-10-31T04:51:01;4;;;5.3;;
74483;SDS011;62942;52.462;10.846;2023-10-31T04:52:11;3.6;;;4.4;;
74483;SDS011;62942;52.462;10.846;2023-10-31T04:53:11;3.3;;;5.6;;
74483;SDS011;62942;52.462;10.846;2023-10-31T04:54:21;2.9;;;4;;
74483;SDS011;62942;52.462;10.846;2023-10-31T04:55:31;2.5;;;4.5;;
74483;SDS011;62942;52.462;10.846;2023-10-31T04:56:41;2.2;;;3.1;;
74483;SDS011;62942;52.462;10.846;2023-10-31T04:57:51;2.4;;;3.1;;
74483;SDS011;62942;52.462;10.846;2023-10-31T04:58:51;2.3;;;2.9;;
74483;SDS011;62942;52.462;10.846;2023-10-31T05:00:02;2.4;;;4.5;;
74483;SDS011;62942;52.462;10.846;2023-10-31T05:01:11;2.5;;;3.3;;
74483;SDS011;62942;52.462;10.846;2023-10-31T05:02:11;2.4;;;4.1;;
74483;SDS011;62942;52.462;10.846;2023-10-31T05:03:21;2.5;;;3.3;;
74483;SDS011;62942;52.462;10.846;2023-10-31T05:04:21;2.4;;;3.1;;
74483;SDS011;62942;52.462;10.846;2023-10-31T05:05:21;2.7;;;3.1;;
74483;SDS011;62942;52.462;10.846;2023-10-31T05:06:31;2.6;;;3;;
74483;SDS011;62942;52.462;10.846;2023-10-31T05:07:41;2.8;;;3.6;;
74483;SDS011;62942;52.462;10.846;2023-10-31T05:08:51;2.6;;;3;;
74483;SDS011;62942;52.462;10.846;2023-10-31T05:09:51;2.8;;;3.1;;
74483;SDS011;62942;52.462;10.846;2023-10-31T05:11:01;2.5;;;3.3;;
74483;SDS011;62942;52.462;10.846;2023-10-31T05:12:03;2.5;;;4;;
74483;SDS011;62942;52.462;10.846;2023-10-31T05:13:11;2.5;;;4.3;;
74483;SDS011;62942;52.462;10.846;2023-10-31T05:14:21;2.4;;;2.8;;
74483;SDS011;62942;52.462;10.846;2023-10-31T05:15:22;2.5;;;3.1;;
74483;SDS011;62942;52.462;10.846;2023-10-31T05:16:38;2.4;;;3;;
74483;SDS011;62942;52.462;10.846;2023-10-31T05:17:41;2.4;;;3;;
74483;SDS011;62942;52.462;10.846;2023-10-31T05:18:51;2.4;;;3.7;;
74483;SDS011;62942;52.462;10.846;2023-10-31T05:20:01;2.5;;;3.3;;
74483;SDS011;62942;52.462;10.846;2023-10-31T05:21:01;2.4;;;3;;
74483;SDS011;62942;52.462;10.846;2023-10-31T05:22:11;2.3;;;3.4;;
74483;SDS011;62942;52.462;10.846;2023-10-31T05:23:21;2.5;;;3.2;;
74483;SDS011;62942;52.462;10.846;2023-10-31T05:24:31;2.5;;;3.4;;
74483;SDS011;62942;52.462;10.846;2023-10-31T05:25:41;2.6;;;3.3;;
74483;SDS011;62942;52.462;10.846;2023-10-31T05:26:51;2.5;;;3.2;;
74483;SDS011;62942;52.462;10.846;2023-10-31T05:28:01;2.4;;;3;;
74483;SDS011;62942;52.462;10.846;2023-10-31T05:29:01;2.5;;;3;;
74483;SDS011;62942;52.462;10.846;2023-10-31T05:30:12;2.6;;;4.1;;
74483;SDS011;62942;52.462;10.846;2023-10-31T05:31:21;2.6;;;3.8;;
74483;SDS011;62942;52.462;10.846;2023-10-31T05:32:31;2.5;;;3.7;;
74483;SDS011;62942;52.462;10.846;2023-10-31T05:33:41;2.5;;;3.3;;
74483;SDS011;62942;52.462;10.846;2023-10-31T05:34:51;2.6;;;3.2;;
74483;SDS011;62942;52.462;10.846;2023-10-31T05:36:01;2.7;;;4.6;;
74483;SDS011;62942;52.462;10.846;2023-10-31T05:37:01;2.6;;;3.1;;
74483;SDS011;62942;52.462;10.846;2023-10-31T05:38:01;2.5;;;3;;
74483;SDS011;62942;52.462;10.846;2023-10-31T05:39:11;2.4;;;2.9;;
74483;SDS011;62942;52.462;10.846;2023-10-31T05:40:21;2.2;;;3.2;;
74483;SDS011;62942;52.462;10.846;2023-10-31T05:41:22;2.4;;;3.1;;
74483;SDS011;62942;52.462;10.846;2023-10-31T05:42:31;2.3;;;3;;
74483;SDS011;62942;52.462;10.846;2023-10-31T05:43:31;2.4;;;3.5;;
74483;SDS011;62942;52.462;10.846;2023-10-31T05:44:41;2.3;;;3.9;;
74483;SDS011;62942;52.462;10.846;2023-10-31T05:45:41;2.3;;;3.4;;
74483;SDS011;62942;52.462;10.846;2023-10-31T05:46:51;2.3;;;3.1;;
74483;SDS011;62942;52.462;10.846;2023-10-31T05:48:01;2.2;;;3.2;;
74483;SDS011;62942;52.462;10.846;2023-10-31T05:49:11;2.1;;;2.8;;
74483;SDS011;62942;52.462;10.846;2023-10-31T05:50:21;1.8;;;2.6;;
74483;SDS011;62942;52.462;10.846;2023-10-31T05:51:31;1.8;;;2.4;;
74483;SDS011;62942;52.462;10.846;2023-10-31T05:52:41;1.9;;;3.4;;
74483;SDS011;62942;52.462;10.846;2023-10-31T05:53:51;1.6;;;2.5;;
74483;SDS011;62942;52.462;10.846;2023-10-31T05:54:51;1.6;;;2.6;;
74483;SDS011;62942;52.462;10.846;2023-10-31T05:55:51;1.7;;;2.8;;
74483;SDS011;62942;52.462;10.846;2023-10-31T05:57:01;1.5;;;2.5;;
74483;SDS011;62942;52.462;10.846;2023-10-31T05:58:11;1.3;;;2.2;;
74483;SDS011;62942;52.462;10.846;2023-10-31T05:59:21;1.2;;;1.8;;
74483;SDS011;62942;52.462;10.846;2023-10-31T06:00:31;1.2;;;1.8;;
74483;SDS011;62942;52.462;10.846;2023-10-31T06:01:41;1.2;;;2.2;;
74483;SDS011;62942;52.462;10.846;2023-10-31T06:02:51;1.1;;;1.8;;
74483;SDS011;62942;52.462;10.846;2023-10-31T06:04:01;1;;;1.5;;
74483;SDS011;62942;52.462;10.846;2023-10-31T06:05:11;0.9;;;1.3;;
74483;SDS011;62942;52.462;10.846;2023-10-31T06:06:21;0.9;;;2.2;;
74483;SDS011;62942;52.462;10.846;2023-10-31T06:07:21;0.9;;;1.7;;
74483;SDS011;62942;52.462;10.846;2023-10-31T06:08:31;0.8;;;1.2;;
74483;SDS011;62942;52.462;10.846;2023-10-31T06:09:41;0.8;;;1.3;;
74483;SDS011;62942;52.462;10.846;2023-10-31T06:10:41;0.9;;;2.2;;
74483;SDS011;62942;52.462;10.846;2023-10-31T06:11:51;1;;;3.2;;
74483;SDS011;62942;52.462;10.846;2023-10-31T06:13:01;0.7;;;1.3;;
74483;SDS011;62942;52.462;10.846;2023-10-31T06:14:01;0.7;;;1.2;;
74483;SDS011;62942;52.462;10.846;2023-10-31T06:15:11;0.8;;;2;;
74483;SDS011;62942;52.462;10.846;2023-10-31T06:16:21;0.7;;;1.7;;
74483;SDS011;62942;52.462;10.846;2023-10-31T06:17:21;0.7;;;1.2;;
74483;SDS011;62942;52.462;10.846;2023-10-31T06:18:31;0.8;;;1.8;;
74483;SDS011;62942;52.462;10.846;2023-10-31T06:19:33;0.8;;;2;;
74483;SDS011;62942;52.462;10.846;2023-10-31T06:20:41;0.7;;;1.4;;
74483;SDS011;62942;52.462;10.846;2023-10-31T06:21:51;0.6;;;1;;
74483;SDS011;62942;52.462;10.846;2023-10-31T06:22:51;0.7;;;1.2;;
74483;SDS011;62942;52.462;10.846;2023-10-31T06:24:01;0.7;;;1.7;;
74483;SDS011;62942;52.462;10.846;2023-10-31T06:25:11;0.6;;;1.3;;
74483;SDS011;62942;52.462;10.846;2023-10-31T06:26:21;0.6;;;1.3;;
74483;SDS011;62942;52.462;10.846;2023-10-31T06:27:21;0.5;;;0.6;;
74483;SDS011;62942;52.462;10.846;2023-10-31T06:28:21;0.4;;;1.2;;
74483;SDS011;62942;52.462;10.846;2023-10-31T06:29:31;0.4;;;0.9;;
74483;SDS011;62942;52.462;10.846;2023-10-31T06:30:41;0.5;;;1.2;;
74483;SDS011;62942;52.462;10.846;2023-10-31T06:31:51;0.4;;;1.5;;
74483;SDS011;62942;52.462;10.846;2023-10-31T06:33:01;0.5;;;0.7;;
74483;SDS011;62942;52.462;10.846;2023-10-31T06:34:01;0.5;;;0.7;;
74483;SDS011;62942;52.462;10.846;2023-10-31T06:35:11;0.5;;;1;;
74483;SDS011;62942;52.462;10.846;2023-10-31T06:36:11;0.6;;;2;;
74483;SDS011;62942;52.462;10.846;2023-10-31T06:37:11;0.5;;;0.7;;
74483;SDS011;62942;52.462;10.846;2023-10-31T06:38:11;0.7;;;2.3;;
74483;SDS011;62942;52.462;10.846;2023-10-31T06:39:21;0.5;;;0.6;;
74483;SDS011;62942;52.462;10.846;2023-10-31T06:40:21;0.6;;;1.4;;
74483;SDS011;62942;52.462;10.846;2023-10-31T06:41:31;0.6;;;1.5;;
74483;SDS011;62942;52.462;10.846;2023-10-31T06:42:31;0.5;;;1.3;;
74483;SDS011;62942;52.462;10.846;2023-10-31T06:43:41;0.6;;;1.6;;
74483;SDS011;62942;52.462;10.846;2023-10-31T06:44:51;0.6;;;1.4;;
74483;SDS011;62942;52.462;10.846;2023-10-31T06:45:51;0.4;;;0.9;;
74483;SDS011;62942;52.462;10.846;2023-10-31T06:47:01;0.5;;;1.6;;